createdAt,value
2018-12-01T00:00:34.528Z,100521.00
2018-12-01T00:03:04.095Z,100516.00
2018-12-01T00:05:33.425Z,100519.00
2018-12-01T00:08:02.737Z,100521.00
2018-12-01T00:10:31.886Z,100520.00
2018-12-01T00:13:01.221Z,100515.00
2018-12-01T00:15:30.921Z,100513.00
2018-12-01T00:18:00.096Z,100521.00
2018-12-01T00:20:31.098Z,100508.00
2018-12-01T00:23:00.793Z,100528.00
2018-12-01T00:25:30.439Z,100518.00
2018-12-01T00:27:59.588Z,100513.00
2018-12-01T00:30:28.778Z,100522.00
2018-12-01T00:32:58.048Z,100516.00
2018-12-01T00:35:27.185Z,100513.00
2018-12-01T00:37:56.571Z,100519.00
2018-12-01T00:40:25.725Z,100520.00
2018-12-01T00:42:54.936Z,100507.00
2018-12-01T00:45:24.367Z,100512.00
2018-12-01T00:47:54.351Z,100507.00
2018-12-01T00:50:24.358Z,100509.00
2018-12-01T00:52:54.078Z,100501.00
2018-12-01T00:55:23.427Z,100500.00
2018-12-01T00:57:52.668Z,100511.00
2018-12-01T01:00:23.927Z,100508.00
2018-12-01T01:02:55.799Z,100496.00
2018-12-01T01:05:27.532Z,100511.00
2018-12-01T01:07:57.742Z,100508.00
2018-12-01T01:10:29.048Z,100514.00
2018-12-01T01:12:58.236Z,100512.00
2018-12-01T01:15:27.444Z,100508.00
2018-12-01T01:17:56.813Z,100521.00
2018-12-01T01:20:26.087Z,100522.00
2018-12-01T01:22:55.310Z,100518.00
2018-12-01T01:25:24.459Z,100519.00
2018-12-01T01:27:54.090Z,100517.00
2018-12-01T01:30:24.360Z,100524.00
2018-12-01T01:33:57.234Z,100520.00
2018-12-01T01:36:27.056Z,100533.00
2018-12-01T01:38:56.267Z,100534.00
2018-12-01T01:41:25.454Z,100536.00
2018-12-01T01:43:54.628Z,100537.00
2018-12-01T01:46:24.158Z,100539.00
2018-12-01T01:48:53.314Z,100531.00
2018-12-01T01:51:22.541Z,100538.00
2018-12-01T01:53:51.797Z,100527.00
2018-12-01T01:56:21.100Z,100534.00
2018-12-01T01:58:50.360Z,100525.00
2018-12-01T02:01:19.527Z,100524.00
2018-12-01T02:03:48.855Z,100537.00
2018-12-01T02:06:18.115Z,100535.00
2018-12-01T02:08:47.561Z,100531.00
2018-12-01T02:11:16.863Z,100532.00
2018-12-01T02:13:46.080Z,100531.00
2018-12-01T02:16:15.298Z,100528.00
2018-12-01T02:18:44.412Z,100532.00
2018-12-01T02:21:13.829Z,100533.00
2018-12-01T02:23:42.992Z,100531.00
2018-12-01T02:26:12.213Z,100521.00
2018-12-01T02:28:41.449Z,100507.00
2018-12-01T02:31:10.721Z,100519.00
2018-12-01T02:33:39.867Z,100509.00
2018-12-01T02:36:08.997Z,100511.00
2018-12-01T02:38:38.657Z,100520.00
2018-12-01T02:41:07.925Z,100509.00
2018-12-01T02:43:37.037Z,100512.00
2018-12-01T02:46:17.315Z,100503.00
2018-12-01T02:48:46.924Z,100506.00
2018-12-01T02:51:16.110Z,100501.00
2018-12-01T02:53:45.279Z,100507.00
2018-12-01T02:56:14.479Z,100496.00
2018-12-01T02:58:43.686Z,100500.00
2018-12-01T03:01:12.932Z,100509.00
2018-12-01T03:03:42.197Z,100509.00
2018-12-01T03:06:11.351Z,100510.00
2018-12-01T03:08:40.735Z,100511.00
2018-12-01T03:11:09.912Z,100519.00
2018-12-01T03:13:39.026Z,100525.00
2018-12-01T03:16:08.172Z,100520.00
2018-12-01T03:18:37.311Z,100521.00
2018-12-01T03:21:06.944Z,100524.00
2018-12-01T03:23:36.202Z,100510.00
2018-12-01T03:26:06.614Z,100517.00
2018-12-01T03:28:36.230Z,100520.00
2018-12-01T03:31:05.534Z,100526.00
2018-12-01T03:33:34.872Z,100533.00
2018-12-01T03:36:04.040Z,100527.00
2018-12-01T03:38:33.181Z,100525.00
2018-12-01T03:41:02.580Z,100536.00
2018-12-01T03:43:31.718Z,100530.00
2018-12-01T03:46:01.061Z,100522.00
2018-12-01T03:48:30.549Z,100529.00
2018-12-01T03:50:59.705Z,100526.00
2018-12-01T03:53:28.897Z,100520.00
2018-12-01T03:55:58.243Z,100531.00
2018-12-01T03:58:27.413Z,100529.00
2018-12-01T04:00:56.747Z,100523.00
2018-12-01T04:03:25.886Z,100534.00
2018-12-01T04:05:55.064Z,100522.00
2018-12-01T04:08:24.253Z,100520.00
2018-12-01T04:10:54.700Z,100508.00
2018-12-01T04:13:24.095Z,100518.00
2018-12-01T04:15:53.251Z,100512.00
2018-12-01T04:18:22.544Z,100517.00
2018-12-01T04:20:51.684Z,100518.00
2018-12-01T04:23:20.833Z,100526.00
2018-12-01T04:25:49.991Z,100530.00
2018-12-01T04:28:19.423Z,100523.00
2018-12-01T04:30:48.670Z,100523.00
2018-12-01T04:33:17.862Z,100521.00
2018-12-01T04:35:47.043Z,100531.00
2018-12-01T04:38:16.238Z,100522.00
2018-12-01T04:40:45.492Z,100529.00
2018-12-01T04:43:14.658Z,100533.00
2018-12-01T04:45:43.899Z,100537.00
2018-12-01T04:48:13.125Z,100529.00
2018-12-01T04:50:42.305Z,100531.00
2018-12-01T04:53:11.450Z,100539.00
2018-12-01T04:55:40.643Z,100541.00
2018-12-01T04:58:09.919Z,100535.00
2018-12-01T05:00:39.218Z,100538.00
2018-12-01T05:03:08.482Z,100538.00
2018-12-01T05:05:37.645Z,100541.00
2018-12-01T05:08:06.773Z,100551.00
2018-12-01T05:10:35.845Z,100549.00
2018-12-01T05:13:05.279Z,100549.00
2018-12-01T05:15:34.483Z,100542.00
2018-12-01T05:18:03.817Z,100550.00
2018-12-01T05:20:32.884Z,100549.00
2018-12-01T05:23:02.013Z,100546.00
2018-12-01T05:25:31.447Z,100552.00
2018-12-01T05:28:00.566Z,100556.00
2018-12-01T05:30:29.807Z,100555.00
2018-12-01T05:32:59.186Z,100549.00
2018-12-01T05:35:28.633Z,100558.00
2018-12-01T05:37:57.949Z,100567.00
2018-12-01T05:40:27.095Z,100552.00
2018-12-01T05:42:56.356Z,100559.00
2018-12-01T05:45:25.536Z,100560.00
2018-12-01T05:47:55.147Z,100561.00
2018-12-01T05:50:25.025Z,100562.00
2018-12-01T05:52:56.467Z,100559.00
2018-12-01T05:55:25.861Z,100569.00
2018-12-01T05:57:55.037Z,100558.00
2018-12-01T06:00:24.232Z,100569.00
2018-12-01T06:02:53.626Z,100570.00
2018-12-01T06:05:22.794Z,100575.00
2018-12-01T06:07:52.051Z,100560.00
2018-12-01T06:10:22.410Z,100560.00
2018-12-01T06:12:52.717Z,100561.00
2018-12-01T06:15:22.174Z,100554.00
2018-12-01T06:17:51.378Z,100557.00
2018-12-01T06:20:22.063Z,100561.00
2018-12-01T06:22:51.312Z,100557.00
2018-12-01T06:25:21.783Z,100557.00
2018-12-01T06:27:50.937Z,100543.00
2018-12-01T06:30:20.493Z,100564.00
2018-12-01T06:32:50.519Z,100550.00
2018-12-01T06:35:19.563Z,100556.00
2018-12-01T06:37:48.655Z,100562.00
2018-12-01T06:40:18.620Z,100559.00
2018-12-01T06:42:47.704Z,100557.00
2018-12-01T06:45:17.412Z,100565.00
2018-12-01T06:47:46.534Z,100572.00
2018-12-01T06:50:23.104Z,100572.00
2018-12-01T06:52:53.207Z,100586.00
2018-12-01T06:55:23.200Z,100583.00
2018-12-01T06:57:52.278Z,100586.00
2018-12-01T07:00:24.499Z,100590.00
2018-12-01T07:02:54.687Z,100587.00
2018-12-01T07:05:24.224Z,100582.00
2018-12-01T07:07:53.638Z,100572.00
2018-12-01T07:10:23.499Z,100581.00
2018-12-01T07:12:55.296Z,100574.00
2018-12-01T07:15:35.884Z,100581.00
2018-12-01T07:18:16.394Z,100570.00
2018-12-01T07:20:46.381Z,100577.00
2018-12-01T07:23:17.030Z,100575.00
2018-12-01T07:25:46.006Z,100576.00
2018-12-01T07:28:15.272Z,100580.00
2018-12-01T07:30:44.896Z,100572.00
2018-12-01T07:33:14.986Z,100578.00
2018-12-01T07:35:44.883Z,100578.00
2018-12-01T07:38:14.844Z,100590.00
2018-12-01T07:40:44.536Z,100592.00
2018-12-01T07:43:14.234Z,100580.00
2018-12-01T07:45:43.653Z,100569.00
2018-12-01T07:48:13.261Z,100576.00
2018-12-01T07:50:42.510Z,100580.00
2018-12-01T07:53:12.151Z,100587.00
2018-12-01T07:55:41.694Z,100592.00
2018-12-01T07:58:11.135Z,100586.00
2018-12-01T08:00:40.445Z,100582.00
2018-12-01T08:03:09.909Z,100589.00
2018-12-01T08:05:39.517Z,100577.00
2018-12-01T08:08:09.841Z,100570.00
2018-12-01T08:10:39.927Z,100588.00
2018-12-01T08:13:09.723Z,100562.00
2018-12-01T08:15:39.793Z,100567.00
2018-12-01T08:18:10.071Z,100565.00
2018-12-01T08:20:39.517Z,100566.00
2018-12-01T08:23:08.942Z,100568.00
2018-12-01T08:25:38.617Z,100579.00
2018-12-01T08:28:09.876Z,100573.00
2018-12-01T08:30:40.008Z,100568.00
2018-12-01T08:33:09.857Z,100563.00
2018-12-01T08:35:39.404Z,100567.00
2018-12-01T08:38:08.926Z,100563.00
2018-12-01T08:40:38.328Z,100564.00
2018-12-01T08:43:07.908Z,100562.00
2018-12-01T08:45:38.385Z,100564.00
2018-12-01T08:48:08.634Z,100570.00
2018-12-01T08:50:38.857Z,100576.00
2018-12-01T08:53:08.286Z,100573.00
2018-12-01T08:55:37.522Z,100570.00
2018-12-01T08:58:07.137Z,100578.00
2018-12-01T09:00:38.336Z,100575.00
2018-12-01T09:03:12.678Z,100565.00
2018-12-01T09:05:42.320Z,100575.00
2018-12-01T09:08:11.970Z,100572.00
2018-12-01T09:10:41.499Z,100561.00
2018-12-01T09:13:10.872Z,100559.00
2018-12-01T09:15:40.372Z,100564.00
2018-12-01T09:18:10.000Z,100565.00
2018-12-01T09:20:39.656Z,100569.00
2018-12-01T09:23:09.353Z,100569.00
2018-12-01T09:25:38.709Z,100587.00
2018-12-01T09:28:09.227Z,100573.00
2018-12-01T09:30:40.358Z,100573.00
2018-12-01T09:33:10.130Z,100566.00
2018-12-01T09:35:40.008Z,100577.00
2018-12-01T09:38:11.676Z,100574.00
2018-12-01T09:40:41.086Z,100562.00
2018-12-01T09:43:10.648Z,100560.00
2018-12-01T09:45:40.132Z,100562.00
2018-12-01T09:48:10.358Z,100557.00
2018-12-01T09:50:39.938Z,100554.00
2018-12-01T09:53:09.533Z,100554.00
2018-12-01T09:55:39.024Z,100551.00
2018-12-01T09:58:08.521Z,100544.00
2018-12-01T10:00:38.109Z,100554.00
2018-12-01T10:03:08.875Z,100562.00
2018-12-01T10:05:38.256Z,100551.00
2018-12-01T10:08:08.199Z,100549.00
2018-12-01T10:10:37.626Z,100552.00
2018-12-01T10:13:07.367Z,100567.00
2018-12-01T10:15:37.350Z,100558.00
2018-12-01T10:18:10.257Z,100556.00
2018-12-01T10:20:40.065Z,100553.00
2018-12-01T10:23:10.791Z,100553.00
2018-12-01T10:25:40.190Z,100556.00
2018-12-01T10:28:11.093Z,100543.00
2018-12-01T10:30:40.404Z,100547.00
2018-12-01T10:33:09.957Z,100562.00
2018-12-01T10:35:40.065Z,100550.00
2018-12-01T10:38:16.434Z,100556.00
2018-12-01T10:40:45.979Z,100552.00
2018-12-01T10:43:15.679Z,100544.00
2018-12-01T10:45:44.954Z,100551.00
2018-12-01T10:48:14.842Z,100551.00
2018-12-01T10:50:44.404Z,100545.00
2018-12-01T10:53:14.288Z,100534.00
2018-12-01T10:55:43.900Z,100528.00
2018-12-01T10:58:15.640Z,100530.00
2018-12-01T11:00:52.442Z,100528.00
2018-12-01T11:03:27.828Z,100529.00
2018-12-01T11:05:58.903Z,100527.00
2018-12-01T11:08:28.340Z,100526.00
2018-12-01T11:10:57.538Z,100524.00
2018-12-01T11:13:27.056Z,100523.00
2018-12-01T11:15:56.613Z,100539.00
2018-12-01T11:18:25.993Z,100540.00
2018-12-01T11:20:55.436Z,100531.00
2018-12-01T11:23:25.812Z,100536.00
2018-12-01T11:25:55.576Z,100540.00
2018-12-01T11:28:25.089Z,100522.00
2018-12-01T11:30:54.597Z,100516.00
2018-12-01T11:33:23.941Z,100529.00
2018-12-01T11:35:53.471Z,100512.00
2018-12-01T11:38:22.837Z,100517.00
2018-12-01T11:40:52.276Z,100505.00
2018-12-01T11:43:22.100Z,100513.00
2018-12-01T11:45:51.543Z,100515.00
2018-12-01T11:48:21.064Z,100517.00
2018-12-01T11:50:50.489Z,100518.00
2018-12-01T11:53:19.923Z,100501.00
2018-12-01T11:55:49.546Z,100515.00
2018-12-01T11:58:19.181Z,100506.00
2018-12-01T12:00:48.554Z,100503.00
2018-12-01T12:03:17.935Z,100496.00
2018-12-01T12:05:47.433Z,100501.00
2018-12-01T12:08:21.209Z,100486.00
2018-12-01T12:10:50.744Z,100485.00
2018-12-01T12:13:20.952Z,100494.00
2018-12-01T12:15:50.493Z,100489.00
2018-12-01T12:18:20.092Z,100487.00
2018-12-01T12:20:49.929Z,100475.00
2018-12-01T12:23:19.356Z,100467.00
2018-12-01T12:25:48.616Z,100473.00
2018-12-01T12:28:17.996Z,100476.00
2018-12-01T12:30:47.522Z,100471.00
2018-12-01T12:33:17.043Z,100480.00
2018-12-01T12:35:47.151Z,100484.00
2018-12-01T12:38:17.054Z,100485.00
2018-12-01T12:40:46.509Z,100479.00
2018-12-01T12:43:15.793Z,100480.00
2018-12-01T12:45:47.921Z,100475.00
2018-12-01T12:48:17.681Z,100479.00
2018-12-01T12:50:52.926Z,100467.00
2018-12-01T12:53:17.167Z,100468.00
2018-12-01T12:55:46.661Z,100469.00
2018-12-01T12:58:16.391Z,100476.00
2018-12-01T13:00:45.851Z,100464.00
2018-12-01T13:03:15.173Z,100454.00
2018-12-01T13:05:45.627Z,100452.00
2018-12-01T13:08:16.394Z,100458.00
2018-12-01T13:10:45.871Z,100459.00
2018-12-01T13:13:15.010Z,100457.00
2018-12-01T13:15:45.749Z,100447.00
2018-12-01T13:18:15.616Z,100454.00
2018-12-01T13:20:46.374Z,100458.00
2018-12-01T13:23:15.995Z,100452.00
2018-12-01T13:25:45.306Z,100447.00
2018-12-01T13:28:23.588Z,100456.00
2018-12-01T13:30:56.794Z,100448.00
2018-12-01T13:33:26.572Z,100437.00
2018-12-01T13:35:56.733Z,100439.00
2018-12-01T13:38:26.131Z,100455.00
2018-12-01T13:40:55.518Z,100452.00
2018-12-01T13:43:25.056Z,100448.00
2018-12-01T13:45:55.475Z,100450.00
2018-12-01T13:48:25.414Z,100447.00
2018-12-01T13:50:55.103Z,100451.00
2018-12-01T13:53:24.667Z,100440.00
2018-12-01T13:55:54.303Z,100449.00
2018-12-01T13:58:23.836Z,100454.00
2018-12-01T14:00:53.298Z,100448.00
2018-12-01T14:03:22.771Z,100452.00
2018-12-01T14:05:52.447Z,100450.00
2018-12-01T14:08:21.812Z,100449.00
2018-12-01T14:10:52.200Z,100450.00
2018-12-01T14:13:21.934Z,100442.00
2018-12-01T14:15:51.425Z,100456.00
2018-12-01T14:18:20.857Z,100448.00
2018-12-01T14:20:50.122Z,100453.00
2018-12-01T14:23:19.919Z,100449.00
2018-12-01T14:25:49.426Z,100444.00
2018-12-01T14:28:18.813Z,100447.00
2018-12-01T14:30:48.141Z,100452.00
2018-12-01T14:33:17.778Z,100447.00
2018-12-01T14:35:47.473Z,100450.00
2018-12-01T14:38:18.564Z,100458.00
2018-12-01T14:40:50.005Z,100455.00
2018-12-01T14:43:19.429Z,100457.00
2018-12-01T14:45:49.954Z,100453.00
2018-12-01T14:48:19.778Z,100454.00
2018-12-01T14:50:49.158Z,100452.00
2018-12-01T14:53:19.162Z,100451.00
2018-12-01T14:55:48.752Z,100448.00
2018-12-01T14:58:18.469Z,100455.00
2018-12-01T15:00:47.903Z,100453.00
2018-12-01T15:03:17.363Z,100451.00
2018-12-01T15:05:46.959Z,100446.00
2018-12-01T15:08:16.185Z,100442.00
2018-12-01T15:10:45.725Z,100442.00
2018-12-01T15:13:14.968Z,100432.00
2018-12-01T15:15:44.419Z,100429.00
2018-12-01T15:18:14.026Z,100416.00
2018-12-01T15:20:43.520Z,100429.00
2018-12-01T15:23:12.702Z,100421.00
2018-12-01T15:25:42.108Z,100427.00
2018-12-01T15:28:11.255Z,100430.00
2018-12-01T15:30:40.451Z,100431.00
2018-12-01T15:33:14.700Z,100416.00
2018-12-01T15:35:47.234Z,100423.00
2018-12-01T15:38:16.592Z,100424.00
2018-12-01T15:40:47.238Z,100418.00
2018-12-01T15:43:17.074Z,100409.00
2018-12-01T15:45:45.362Z,100416.00
2018-12-01T15:48:14.784Z,100402.00
2018-12-01T15:50:44.348Z,100402.00
2018-12-01T15:53:14.651Z,100400.00
2018-12-01T15:55:43.883Z,100396.00
2018-12-01T15:58:13.020Z,100398.00
2018-12-01T16:00:43.128Z,100394.00
2018-12-01T16:03:12.278Z,100390.00
2018-12-01T16:05:41.478Z,100388.00
2018-12-01T16:08:11.278Z,100379.00
2018-12-01T16:10:40.471Z,100378.00
2018-12-01T16:13:14.121Z,100377.00
2018-12-01T16:15:45.115Z,100369.00
2018-12-01T16:18:14.368Z,100376.00
2018-12-01T16:20:43.734Z,100381.00
2018-12-01T16:23:12.804Z,100372.00
2018-12-01T16:25:42.134Z,100364.00
2018-12-01T16:28:11.492Z,100374.00
2018-12-01T16:30:44.859Z,100363.00
2018-12-01T16:33:17.170Z,100352.00
2018-12-01T16:35:46.379Z,100347.00
2018-12-01T16:38:18.125Z,100337.00
2018-12-01T16:40:57.400Z,100334.00
2018-12-01T16:43:27.768Z,100333.00
2018-12-01T16:46:00.908Z,100326.00
2018-12-01T16:48:31.215Z,100326.00
2018-12-01T16:51:00.315Z,100321.00
2018-12-01T16:53:29.471Z,100321.00
2018-12-01T16:55:58.617Z,100321.00
2018-12-01T16:58:27.736Z,100313.00
2018-12-01T17:00:59.965Z,100321.00
2018-12-01T17:03:29.060Z,100315.00
2018-12-01T17:06:01.083Z,100312.00
2018-12-01T17:08:30.294Z,100319.00
2018-12-01T17:10:59.392Z,100315.00
2018-12-01T17:13:28.728Z,100311.00
2018-12-01T17:15:57.959Z,100303.00
2018-12-01T17:18:27.236Z,100306.00
2018-12-01T17:20:56.439Z,100302.00
2018-12-01T17:23:25.589Z,100302.00
2018-12-01T17:25:55.145Z,100306.00
2018-12-01T17:28:24.269Z,100300.00
2018-12-01T17:30:53.365Z,100301.00
2018-12-01T17:33:22.535Z,100316.00
2018-12-01T17:35:51.631Z,100315.00
2018-12-01T17:38:21.658Z,100297.00
2018-12-01T17:41:24.402Z,100309.00
2018-12-01T17:43:58.531Z,100309.00
2018-12-01T17:46:27.690Z,100312.00
2018-12-01T17:48:56.813Z,100308.00
2018-12-01T17:51:25.932Z,100299.00
2018-12-01T17:53:58.237Z,100295.00
2018-12-01T17:56:27.409Z,100285.00
2018-12-01T17:58:56.569Z,100300.00
2018-12-01T18:01:25.897Z,100294.00
2018-12-01T18:03:55.049Z,100285.00
2018-12-01T18:06:24.272Z,100300.00
2018-12-01T18:08:53.473Z,100302.00
2018-12-01T18:11:22.659Z,100302.00
2018-12-01T18:13:51.850Z,100298.00
2018-12-01T18:16:21.267Z,100298.00
2018-12-01T18:18:50.531Z,100301.00
2018-12-01T18:21:19.661Z,100295.00
2018-12-01T18:23:49.105Z,100289.00
2018-12-01T18:26:18.354Z,100283.00
2018-12-01T18:28:49.379Z,100283.00
2018-12-01T18:31:20.534Z,100290.00
2018-12-01T18:33:58.216Z,100285.00
2018-12-01T18:36:27.331Z,100274.00
2018-12-01T18:38:56.878Z,100276.00
2018-12-01T18:41:26.230Z,100273.00
2018-12-01T18:43:55.336Z,100279.00
2018-12-01T18:46:24.875Z,100264.00
2018-12-01T18:48:54.019Z,100268.00
2018-12-01T18:51:23.344Z,100262.00
2018-12-01T18:53:52.446Z,100261.00
2018-12-01T18:56:21.598Z,100257.00
2018-12-01T18:58:50.667Z,100246.00
2018-12-01T19:01:19.803Z,100242.00
2018-12-01T19:03:48.963Z,100250.00
2018-12-01T19:06:18.152Z,100239.00
2018-12-01T19:08:47.279Z,100232.00
2018-12-01T19:11:16.425Z,100223.00
2018-12-01T19:13:45.557Z,100216.00
2018-12-01T19:16:14.801Z,100233.00
2018-12-01T19:18:43.906Z,100220.00
2018-12-01T19:21:13.056Z,100214.00
2018-12-01T19:23:42.249Z,100205.00
2018-12-01T19:26:11.505Z,100207.00
2018-12-01T19:28:40.806Z,100196.00
2018-12-01T19:31:10.022Z,100196.00
2018-12-01T19:33:39.138Z,100198.00
2018-12-01T19:36:08.229Z,100191.00
2018-12-01T19:38:37.367Z,100201.00
2018-12-01T19:41:06.609Z,100191.00
2018-12-01T19:43:35.722Z,100190.00
2018-12-01T19:46:04.890Z,100198.00
2018-12-01T19:48:34.051Z,100189.00
2018-12-01T19:51:03.319Z,100185.00
2018-12-01T19:53:34.553Z,100182.00
2018-12-01T19:56:03.995Z,100165.00
2018-12-01T19:58:33.190Z,100167.00
2018-12-01T20:01:02.363Z,100176.00
2018-12-01T20:03:32.388Z,100171.00
2018-12-01T20:06:01.616Z,100164.00
2018-12-01T20:08:30.761Z,100164.00
2018-12-01T20:11:04.197Z,100158.00
2018-12-01T20:13:35.310Z,100147.00
2018-12-01T20:16:24.645Z,100147.00
2018-12-01T20:18:54.371Z,100142.00
2018-12-01T20:21:23.902Z,100141.00
2018-12-01T20:23:53.135Z,100129.00
2018-12-01T20:26:22.391Z,100135.00
2018-12-01T20:28:51.871Z,100130.00
2018-12-01T20:31:21.042Z,100111.00
2018-12-01T20:33:51.528Z,100115.00
2018-12-01T20:36:22.549Z,100103.00
2018-12-01T20:39:25.412Z,100094.00
2018-12-01T20:41:54.503Z,100087.00
2018-12-01T20:44:23.741Z,100082.00
2018-12-01T20:46:52.928Z,100079.00
2018-12-01T20:49:22.281Z,100079.00
2018-12-01T20:51:51.758Z,100068.00
2018-12-01T20:54:38.176Z,100061.00
2018-12-01T20:57:11.453Z,100054.00
2018-12-01T20:59:40.710Z,100055.00
2018-12-01T21:02:09.803Z,100038.00
2018-12-01T21:04:39.055Z,100040.00
2018-12-01T21:07:08.312Z,100032.00
2018-12-01T21:09:37.414Z,100031.00
2018-12-01T21:12:08.174Z,100034.00
2018-12-01T21:14:37.531Z,100033.00
2018-12-01T21:17:06.753Z,100027.00
2018-12-01T21:19:35.958Z,100018.00
2018-12-01T21:22:05.440Z,100019.00
2018-12-01T21:24:34.651Z,100024.00
2018-12-01T21:27:03.890Z,100030.00
2018-12-01T21:29:33.162Z,100020.00
2018-12-01T21:32:02.320Z,100011.00
2018-12-01T21:34:38.441Z,100011.00
2018-12-01T21:37:07.647Z,100004.00
2018-12-01T21:39:36.865Z,100002.00
2018-12-01T21:42:06.337Z,99992.00
2018-12-01T21:44:35.571Z,100003.00
2018-12-01T21:47:06.354Z,100003.00
2018-12-01T21:49:35.642Z,100006.00
2018-12-01T21:52:04.897Z,100000.00
2018-12-01T21:54:34.104Z,99987.00
2018-12-01T21:57:03.262Z,99986.00
2018-12-01T21:59:32.817Z,99980.00
2018-12-01T22:02:02.186Z,99968.00
2018-12-01T22:04:31.698Z,99962.00
2018-12-01T22:07:01.651Z,99959.00
2018-12-01T22:09:30.812Z,99948.00
2018-12-01T22:12:00.120Z,99948.00
2018-12-01T22:14:29.412Z,99948.00
2018-12-01T22:16:58.654Z,99932.00
2018-12-01T22:19:27.857Z,99942.00
2018-12-01T22:21:57.160Z,99927.00
2018-12-01T22:24:26.321Z,99928.00
2018-12-01T22:26:55.410Z,99919.00
2018-12-01T22:29:24.500Z,99919.00
2018-12-01T22:31:53.609Z,99923.00
2018-12-01T22:34:22.788Z,99920.00
2018-12-01T22:36:51.983Z,99920.00
2018-12-01T22:39:21.179Z,99908.00
2018-12-01T22:41:50.378Z,99915.00
2018-12-01T22:44:19.832Z,99911.00
2018-12-01T22:46:49.235Z,99899.00
2018-12-01T22:49:18.401Z,99894.00
2018-12-01T22:51:47.645Z,99898.00
2018-12-01T22:54:16.784Z,99896.00
2018-12-01T22:56:45.946Z,99895.00
2018-12-01T22:59:15.060Z,99890.00
2018-12-01T23:01:44.207Z,99880.00
2018-12-01T23:04:13.427Z,99868.00
2018-12-01T23:06:42.844Z,99869.00
2018-12-01T23:09:12.061Z,99874.00
2018-12-01T23:11:41.178Z,99867.00
2018-12-01T23:14:10.498Z,99863.00
2018-12-01T23:16:39.588Z,99859.00
2018-12-01T23:19:08.755Z,99854.00
2018-12-01T23:21:37.896Z,99859.00
2018-12-01T23:24:07.012Z,99852.00
2018-12-01T23:26:36.125Z,99852.00
2018-12-01T23:29:05.921Z,99849.00
2018-12-01T23:31:34.984Z,99843.00
2018-12-01T23:34:04.134Z,99849.00
2018-12-01T23:36:33.442Z,99845.00
2018-12-01T23:39:05.674Z,99838.00
2018-12-01T23:41:34.802Z,99841.00
2018-12-01T23:44:03.942Z,99843.00
2018-12-01T23:46:33.397Z,99827.00
2018-12-01T23:49:02.570Z,99837.00
2018-12-01T23:51:31.854Z,99831.00
2018-12-01T23:54:01.160Z,99840.00
2018-12-01T23:56:30.510Z,99819.00
2018-12-01T23:58:59.676Z,99823.00
